sensor_id;sensor_type;location;lat;lon;timestamp;P1;durP1;ratioP1;P2;durP2;ratioP2
68523;SDS011;55524;51.380;13.372;2024-03-23T00:54:01;30.00;;;14.20;;
68523;SDS011;55524;51.380;13.372;2024-03-23T00:56:28;27.48;;;13.48;;
68523;SDS011;55524;51.380;13.372;2024-03-23T00:58:54;26.70;;;13.93;;
68523;SDS011;55524;51.380;13.372;2024-03-23T01:01:21;27.75;;;13.65;;
68523;SDS011;55524;51.380;13.372;2024-03-23T01:03:47;27.35;;;13.80;;
68523;SDS011;55524;51.380;13.372;2024-03-23T01:06:13;29.88;;;14.32;;
68523;SDS011;55524;51.380;13.372;2024-03-23T01:08:39;29.30;;;14.70;;
68523;SDS011;55524;51.380;13.372;2024-03-23T01:11:06;28.08;;;13.63;;
68523;SDS011;55524;51.380;13.372;2024-03-23T01:13:33;28.42;;;13.63;;
68523;SDS011;55524;51.380;13.372;2024-03-23T01:15:59;28.65;;;13.90;;
68523;SDS011;55524;51.380;13.372;2024-03-23T01:18:25;30.00;;;13.45;;
68523;SDS011;55524;51.380;13.372;2024-03-23T01:20:51;30.80;;;13.93;;
68523;SDS011;55524;51.380;13.372;2024-03-23T01:23:18;31.40;;;14.95;;
68523;SDS011;55524;51.380;13.372;2024-03-23T01:25:51;28.88;;;13.73;;
68523;SDS011;55524;51.380;13.372;2024-03-23T01:28:18;25.10;;;12.85;;
68523;SDS011;55524;51.380;13.372;2024-03-23T01:30:45;26.80;;;13.20;;
68523;SDS011;55524;51.380;13.372;2024-03-23T01:33:11;29.42;;;12.93;;
68523;SDS011;55524;51.380;13.372;2024-03-23T01:35:38;25.13;;;12.88;;
68523;SDS011;55524;51.380;13.372;2024-03-23T01:38:04;25.67;;;12.60;;
68523;SDS011;55524;51.380;13.372;2024-03-23T01:40:31;27.08;;;12.90;;
68523;SDS011;55524;51.380;13.372;2024-03-23T01:45:26;25.15;;;12.55;;
68523;SDS011;55524;51.380;13.372;2024-03-23T01:47:53;25.60;;;13.10;;
68523;SDS011;55524;51.380;13.372;2024-03-23T01:50:19;26.25;;;12.48;;
68523;SDS011;55524;51.380;13.372;2024-03-23T01:52:47;22.52;;;12.35;;
68523;SDS011;55524;51.380;13.372;2024-03-23T01:55:13;22.60;;;11.75;;
68523;SDS011;55524;51.380;13.372;2024-03-23T01:57:39;30.08;;;14.30;;
68523;SDS011;55524;51.380;13.372;2024-03-23T02:00:06;28.80;;;13.63;;
68523;SDS011;55524;51.380;13.372;2024-03-23T02:02:35;25.67;;;12.45;;
68523;SDS011;55524;51.380;13.372;2024-03-23T02:05:01;28.48;;;12.63;;
68523;SDS011;55524;51.380;13.372;2024-03-23T02:07:27;22.55;;;12.18;;
68523;SDS011;55524;51.380;13.372;2024-03-23T02:09:54;22.85;;;11.88;;
68523;SDS011;55524;51.380;13.372;2024-03-23T02:12:20;25.90;;;13.27;;
68523;SDS011;55524;51.380;13.372;2024-03-23T02:14:47;24.05;;;13.02;;
68523;SDS011;55524;51.380;13.372;2024-03-23T02:17:13;23.67;;;12.15;;
68523;SDS011;55524;51.380;13.372;2024-03-23T02:19:39;33.95;;;16.33;;
68523;SDS011;55524;51.380;13.372;2024-03-23T02:22:06;39.80;;;18.23;;
68523;SDS011;55524;51.380;13.372;2024-03-23T02:24:32;37.17;;;16.90;;
68523;SDS011;55524;51.380;13.372;2024-03-23T02:26:59;35.08;;;15.90;;
68523;SDS011;55524;51.380;13.372;2024-03-23T02:29:25;32.50;;;14.80;;
68523;SDS011;55524;51.380;13.372;2024-03-23T02:31:51;22.95;;;12.23;;
68523;SDS011;55524;51.380;13.372;2024-03-23T02:34:18;21.52;;;11.38;;
68523;SDS011;55524;51.380;13.372;2024-03-23T02:36:44;12.82;;;7.55;;
68523;SDS011;55524;51.380;13.372;2024-03-23T02:39:10;14.52;;;7.18;;
68523;SDS011;55524;51.380;13.372;2024-03-23T02:41:36;17.63;;;8.68;;
68523;SDS011;55524;51.380;13.372;2024-03-23T02:44:03;14.27;;;8.02;;
68523;SDS011;55524;51.380;13.372;2024-03-23T02:46:29;14.70;;;8.20;;
68523;SDS011;55524;51.380;13.372;2024-03-23T02:48:55;17.42;;;9.23;;
68523;SDS011;55524;51.380;13.372;2024-03-23T02:51:22;19.35;;;9.05;;
68523;SDS011;55524;51.380;13.372;2024-03-23T02:53:48;18.65;;;9.32;;
68523;SDS011;55524;51.380;13.372;2024-03-23T02:56:14;19.65;;;9.68;;
68523;SDS011;55524;51.380;13.372;2024-03-23T02:58:41;19.77;;;9.82;;
68523;SDS011;55524;51.380;13.372;2024-03-23T03:01:10;17.10;;;9.32;;
68523;SDS011;55524;51.380;13.372;2024-03-23T03:03:36;20.80;;;10.10;;
68523;SDS011;55524;51.380;13.372;2024-03-23T03:06:03;26.67;;;12.30;;
68523;SDS011;55524;51.380;13.372;2024-03-23T03:08:29;23.42;;;10.57;;
68523;SDS011;55524;51.380;13.372;2024-03-23T03:10:55;20.95;;;11.02;;
68523;SDS011;55524;51.380;13.372;2024-03-23T03:13:22;23.95;;;11.55;;
68523;SDS011;55524;51.380;13.372;2024-03-23T03:15:48;25.80;;;13.32;;
68523;SDS011;55524;51.380;13.372;2024-03-23T03:18:14;29.75;;;13.45;;
68523;SDS011;55524;51.380;13.372;2024-03-23T03:20:40;30.73;;;14.40;;
68523;SDS011;55524;51.380;13.372;2024-03-23T03:23:07;32.70;;;15.00;;
68523;SDS011;55524;51.380;13.372;2024-03-23T03:25:34;30.63;;;15.13;;
68523;SDS011;55524;51.380;13.372;2024-03-23T03:28:00;30.92;;;14.88;;
68523;SDS011;55524;51.380;13.372;2024-03-23T03:30:27;27.08;;;13.93;;
68523;SDS011;55524;51.380;13.372;2024-03-23T03:32:53;33.25;;;16.67;;
68523;SDS011;55524;51.380;13.372;2024-03-23T03:37:56;34.45;;;17.60;;
68523;SDS011;55524;51.380;13.372;2024-03-23T03:40:22;34.33;;;16.13;;
68523;SDS011;55524;51.380;13.372;2024-03-23T03:42:50;34.60;;;16.65;;
68523;SDS011;55524;51.380;13.372;2024-03-23T03:45:16;35.60;;;17.35;;
68523;SDS011;55524;51.380;13.372;2024-03-23T03:47:42;35.22;;;17.23;;
68523;SDS011;55524;51.380;13.372;2024-03-23T03:50:09;34.33;;;17.23;;
68523;SDS011;55524;51.380;13.372;2024-03-23T03:52:35;35.95;;;17.50;;
68523;SDS011;55524;51.380;13.372;2024-03-23T03:55:01;39.42;;;17.63;;
68523;SDS011;55524;51.380;13.372;2024-03-23T03:57:28;38.42;;;17.35;;
68523;SDS011;55524;51.380;13.372;2024-03-23T03:59:54;27.30;;;14.05;;
68523;SDS011;55524;51.380;13.372;2024-03-23T04:02:21;22.23;;;11.27;;
68523;SDS011;55524;51.380;13.372;2024-03-23T04:04:47;21.90;;;9.48;;
68523;SDS011;55524;51.380;13.372;2024-03-23T04:07:13;25.13;;;10.23;;
68523;SDS011;55524;51.380;13.372;2024-03-23T04:09:39;27.25;;;10.13;;
68523;SDS011;55524;51.380;13.372;2024-03-23T04:12:06;20.05;;;8.65;;
68523;SDS011;55524;51.380;13.372;2024-03-23T04:14:32;23.67;;;9.07;;
68523;SDS011;55524;51.380;13.372;2024-03-23T04:16:58;18.45;;;8.15;;
68523;SDS011;55524;51.380;13.372;2024-03-23T04:19:25;22.70;;;9.35;;
68523;SDS011;55524;51.380;13.372;2024-03-23T04:21:51;22.13;;;8.82;;
68523;SDS011;55524;51.380;13.372;2024-03-23T04:24:17;28.23;;;10.52;;
68523;SDS011;55524;51.380;13.372;2024-03-23T04:26:46;25.58;;;10.25;;
68523;SDS011;55524;51.380;13.372;2024-03-23T04:29:12;25.27;;;8.45;;
68523;SDS011;55524;51.380;13.372;2024-03-23T04:31:38;22.25;;;7.75;;
68523;SDS011;55524;51.380;13.372;2024-03-23T04:34:04;17.00;;;7.38;;
68523;SDS011;55524;51.380;13.372;2024-03-23T04:36:31;17.33;;;6.88;;
68523;SDS011;55524;51.380;13.372;2024-03-23T04:38:58;20.13;;;7.30;;
68523;SDS011;55524;51.380;13.372;2024-03-23T04:41:25;19.38;;;6.93;;
68523;SDS011;55524;51.380;13.372;2024-03-23T04:43:52;18.67;;;7.35;;
68523;SDS011;55524;51.380;13.372;2024-03-23T04:46:18;18.02;;;6.55;;
68523;SDS011;55524;51.380;13.372;2024-03-23T04:48:45;16.08;;;6.78;;
68523;SDS011;55524;51.380;13.372;2024-03-23T04:51:24;21.48;;;6.95;;
68523;SDS011;55524;51.380;13.372;2024-03-23T04:53:51;17.70;;;6.57;;
68523;SDS011;55524;51.380;13.372;2024-03-23T04:56:17;19.73;;;6.18;;
68523;SDS011;55524;51.380;13.372;2024-03-23T04:58:44;15.27;;;5.68;;
68523;SDS011;55524;51.380;13.372;2024-03-23T05:01:10;13.77;;;5.75;;
68523;SDS011;55524;51.380;13.372;2024-03-23T05:03:37;15.20;;;5.55;;
68523;SDS011;55524;51.380;13.372;2024-03-23T05:06:03;28.95;;;6.10;;
68523;SDS011;55524;51.380;13.372;2024-03-23T05:08:30;21.38;;;5.30;;
68523;SDS011;55524;51.380;13.372;2024-03-23T05:10:56;23.75;;;5.68;;
68523;SDS011;55524;51.380;13.372;2024-03-23T05:13:22;11.00;;;4.25;;
68523;SDS011;55524;51.380;13.372;2024-03-23T05:15:52;11.75;;;4.95;;
68523;SDS011;55524;51.380;13.372;2024-03-23T05:18:19;15.50;;;4.28;;
68523;SDS011;55524;51.380;13.372;2024-03-23T05:20:55;13.82;;;4.35;;
68523;SDS011;55524;51.380;13.372;2024-03-23T05:23:22;11.70;;;4.57;;
68523;SDS011;55524;51.380;13.372;2024-03-23T05:25:49;11.85;;;4.72;;
68523;SDS011;55524;51.380;13.372;2024-03-23T05:28:17;17.52;;;6.13;;
68523;SDS011;55524;51.380;13.372;2024-03-23T05:30:43;12.20;;;4.63;;
68523;SDS011;55524;51.380;13.372;2024-03-23T05:33:15;13.43;;;5.40;;
68523;SDS011;55524;51.380;13.372;2024-03-23T05:35:42;16.13;;;5.63;;
68523;SDS011;55524;51.380;13.372;2024-03-23T05:38:08;12.45;;;5.15;;
68523;SDS011;55524;51.380;13.372;2024-03-23T05:40:35;13.95;;;5.47;;
68523;SDS011;55524;51.380;13.372;2024-03-23T05:43:05;12.75;;;5.35;;
68523;SDS011;55524;51.380;13.372;2024-03-23T05:45:31;13.75;;;5.30;;
68523;SDS011;55524;51.380;13.372;2024-03-23T05:47:58;16.33;;;5.32;;
68523;SDS011;55524;51.380;13.372;2024-03-23T05:50:24;17.52;;;5.50;;
68523;SDS011;55524;51.380;13.372;2024-03-23T05:52:50;16.27;;;5.65;;
68523;SDS011;55524;51.380;13.372;2024-03-23T05:55:17;15.02;;;5.63;;
68523;SDS011;55524;51.380;13.372;2024-03-23T05:57:43;18.33;;;6.28;;
68523;SDS011;55524;51.380;13.372;2024-03-23T06:00:10;19.58;;;7.05;;
68523;SDS011;55524;51.380;13.372;2024-03-23T06:02:45;15.90;;;6.85;;
68523;SDS011;55524;51.380;13.372;2024-03-23T06:05:12;23.27;;;7.18;;
68523;SDS011;55524;51.380;13.372;2024-03-23T06:07:38;28.42;;;8.15;;
68523;SDS011;55524;51.380;13.372;2024-03-23T06:10:05;20.58;;;6.65;;
68523;SDS011;55524;51.380;13.372;2024-03-23T06:12:31;21.55;;;6.25;;
68523;SDS011;55524;51.380;13.372;2024-03-23T06:14:58;30.00;;;6.72;;
68523;SDS011;55524;51.380;13.372;2024-03-23T06:17:24;19.60;;;6.10;;
68523;SDS011;55524;51.380;13.372;2024-03-23T06:19:50;19.80;;;6.00;;
68523;SDS011;55524;51.380;13.372;2024-03-23T06:22:17;43.00;;;15.50;;
68523;SDS011;55524;51.380;13.372;2024-03-23T06:24:44;29.42;;;9.98;;
68523;SDS011;55524;51.380;13.372;2024-03-23T06:27:10;31.17;;;7.60;;
68523;SDS011;55524;51.380;13.372;2024-03-23T06:29:36;24.05;;;7.55;;
68523;SDS011;55524;51.380;13.372;2024-03-23T06:32:02;20.55;;;6.93;;
68523;SDS011;55524;51.380;13.372;2024-03-23T06:34:29;16.58;;;5.40;;
68523;SDS011;55524;51.380;13.372;2024-03-23T06:36:55;21.70;;;6.78;;
68523;SDS011;55524;51.380;13.372;2024-03-23T06:39:21;32.03;;;7.15;;
68523;SDS011;55524;51.380;13.372;2024-03-23T06:41:54;26.70;;;6.28;;
68523;SDS011;55524;51.380;13.372;2024-03-23T06:44:21;17.85;;;6.88;;
68523;SDS011;55524;51.380;13.372;2024-03-23T06:46:48;22.40;;;5.47;;
68523;SDS011;55524;51.380;13.372;2024-03-23T06:49:14;24.63;;;6.13;;
68523;SDS011;55524;51.380;13.372;2024-03-23T06:51:41;25.80;;;6.80;;
68523;SDS011;55524;51.380;13.372;2024-03-23T06:54:07;25.13;;;8.27;;
68523;SDS011;55524;51.380;13.372;2024-03-23T06:56:33;27.48;;;7.90;;
68523;SDS011;55524;51.380;13.372;2024-03-23T06:59:00;25.88;;;6.88;;
68523;SDS011;55524;51.380;13.372;2024-03-23T07:01:26;28.38;;;7.68;;
68523;SDS011;55524;51.380;13.372;2024-03-23T07:03:55;18.73;;;6.53;;
68523;SDS011;55524;51.380;13.372;2024-03-23T07:06:24;29.40;;;8.52;;
68523;SDS011;55524;51.380;13.372;2024-03-23T07:12:14;28.15;;;9.32;;
68523;SDS011;55524;51.380;13.372;2024-03-23T07:14:40;32.17;;;12.70;;
68523;SDS011;55524;51.380;13.372;2024-03-23T07:17:06;36.83;;;12.32;;
68523;SDS011;55524;51.380;13.372;2024-03-23T07:19:32;46.13;;;13.13;;
68523;SDS011;55524;51.380;13.372;2024-03-23T07:21:58;28.85;;;7.32;;
68523;SDS011;55524;51.380;13.372;2024-03-23T07:24:25;25.73;;;8.45;;
68523;SDS011;55524;51.380;13.372;2024-03-23T07:26:51;28.80;;;7.38;;
68523;SDS011;55524;51.380;13.372;2024-03-23T07:29:24;22.63;;;7.88;;
68523;SDS011;55524;51.380;13.372;2024-03-23T07:31:51;37.95;;;12.18;;
68523;SDS011;55524;51.380;13.372;2024-03-23T07:34:17;36.50;;;11.85;;
68523;SDS011;55524;51.380;13.372;2024-03-23T07:36:43;38.08;;;11.40;;
68523;SDS011;55524;51.380;13.372;2024-03-23T07:39:09;21.48;;;6.68;;
68523;SDS011;55524;51.380;13.372;2024-03-23T07:41:36;20.92;;;6.90;;
68523;SDS011;55524;51.380;13.372;2024-03-23T07:44:02;25.13;;;8.18;;
68523;SDS011;55524;51.380;13.372;2024-03-23T07:46:29;23.45;;;7.78;;
68523;SDS011;55524;51.380;13.372;2024-03-23T07:48:55;28.50;;;7.18;;
68523;SDS011;55524;51.380;13.372;2024-03-23T07:51:22;29.33;;;9.60;;
68523;SDS011;55524;51.380;13.372;2024-03-23T07:53:49;28.52;;;9.98;;
68523;SDS011;55524;51.380;13.372;2024-03-23T07:56:17;28.48;;;8.55;;
68523;SDS011;55524;51.380;13.372;2024-03-23T07:58:47;26.88;;;9.50;;
68523;SDS011;55524;51.380;13.372;2024-03-23T08:01:16;26.92;;;9.48;;
68523;SDS011;55524;51.380;13.372;2024-03-23T08:03:43;24.77;;;7.82;;
68523;SDS011;55524;51.380;13.372;2024-03-23T08:08:40;28.73;;;8.65;;
68523;SDS011;55524;51.380;13.372;2024-03-23T08:11:08;30.73;;;10.02;;
68523;SDS011;55524;51.380;13.372;2024-03-23T08:13:35;36.38;;;10.55;;
68523;SDS011;55524;51.380;13.372;2024-03-23T08:16:02;39.05;;;11.85;;
68523;SDS011;55524;51.380;13.372;2024-03-23T08:18:30;30.38;;;9.52;;
68523;SDS011;55524;51.380;13.372;2024-03-23T08:23:24;27.27;;;9.05;;
68523;SDS011;55524;51.380;13.372;2024-03-23T08:25:51;29.45;;;8.65;;
68523;SDS011;55524;51.380;13.372;2024-03-23T08:28:17;23.52;;;7.90;;
68523;SDS011;55524;51.380;13.372;2024-03-23T08:30:43;20.45;;;7.78;;
68523;SDS011;55524;51.380;13.372;2024-03-23T08:33:09;23.23;;;7.78;;
68523;SDS011;55524;51.380;13.372;2024-03-23T08:35:36;22.23;;;7.47;;
68523;SDS011;55524;51.380;13.372;2024-03-23T08:38:03;35.22;;;8.30;;
68523;SDS011;55524;51.380;13.372;2024-03-23T08:40:29;23.42;;;7.60;;
68523;SDS011;55524;51.380;13.372;2024-03-23T08:42:55;29.05;;;7.68;;
68523;SDS011;55524;51.380;13.372;2024-03-23T08:45:22;26.67;;;7.55;;
68523;SDS011;55524;51.380;13.372;2024-03-23T08:47:49;27.17;;;7.72;;
68523;SDS011;55524;51.380;13.372;2024-03-23T08:50:15;33.95;;;8.85;;
68523;SDS011;55524;51.380;13.372;2024-03-23T08:52:41;32.38;;;12.93;;
68523;SDS011;55524;51.380;13.372;2024-03-23T08:55:08;35.53;;;15.02;;
68523;SDS011;55524;51.380;13.372;2024-03-23T08:57:35;43.95;;;16.40;;
68523;SDS011;55524;51.380;13.372;2024-03-23T09:00:01;21.10;;;7.40;;
68523;SDS011;55524;51.380;13.372;2024-03-23T09:02:28;18.40;;;5.38;;
68523;SDS011;55524;51.380;13.372;2024-03-23T09:04:54;19.33;;;6.03;;
68523;SDS011;55524;51.380;13.372;2024-03-23T09:07:20;14.95;;;6.07;;
68523;SDS011;55524;51.380;13.372;2024-03-23T09:09:47;15.77;;;5.90;;
68523;SDS011;55524;51.380;13.372;2024-03-23T09:12:15;16.83;;;5.47;;
68523;SDS011;55524;51.380;13.372;2024-03-23T09:14:41;13.70;;;4.68;;
68523;SDS011;55524;51.380;13.372;2024-03-23T09:17:07;13.82;;;4.45;;
68523;SDS011;55524;51.380;13.372;2024-03-23T09:19:35;19.20;;;6.05;;
68523;SDS011;55524;51.380;13.372;2024-03-23T09:22:02;16.65;;;5.38;;
68523;SDS011;55524;51.380;13.372;2024-03-23T09:24:28;7.15;;;2.63;;
68523;SDS011;55524;51.380;13.372;2024-03-23T09:26:54;9.55;;;4.10;;
68523;SDS011;55524;51.380;13.372;2024-03-23T09:29:21;9.00;;;3.22;;
68523;SDS011;55524;51.380;13.372;2024-03-23T09:31:48;12.15;;;2.40;;
68523;SDS011;55524;51.380;13.372;2024-03-23T09:34:15;7.47;;;4.18;;
68523;SDS011;55524;51.380;13.372;2024-03-23T09:36:41;3.72;;;1.35;;
68523;SDS011;55524;51.380;13.372;2024-03-23T09:39:08;2.97;;;1.58;;
68523;SDS011;55524;51.380;13.372;2024-03-23T09:41:34;1.98;;;1.58;;
68523;SDS011;55524;51.380;13.372;2024-03-23T09:44:01;3.83;;;2.70;;
68523;SDS011;55524;51.380;13.372;2024-03-23T09:46:27;1.85;;;1.75;;
68523;SDS011;55524;51.380;13.372;2024-03-23T09:48:55;1.30;;;1.20;;
68523;SDS011;55524;51.380;13.372;2024-03-23T09:51:22;1.27;;;1.20;;
68523;SDS011;55524;51.380;13.372;2024-03-23T09:53:49;0.70;;;0.65;;
68523;SDS011;55524;51.380;13.372;2024-03-23T09:56:17;3.67;;;2.00;;
68523;SDS011;55524;51.380;13.372;2024-03-23T09:58:43;3.10;;;2.42;;
68523;SDS011;55524;51.380;13.372;2024-03-23T10:01:09;4.13;;;2.40;;
68523;SDS011;55524;51.380;13.372;2024-03-23T10:03:43;1.13;;;0.63;;
68523;SDS011;55524;51.380;13.372;2024-03-23T10:06:10;2.65;;;1.65;;
68523;SDS011;55524;51.380;13.372;2024-03-23T10:08:37;1.30;;;1.10;;
68523;SDS011;55524;51.380;13.372;2024-03-23T10:11:12;1.05;;;1.00;;
68523;SDS011;55524;51.380;13.372;2024-03-23T10:13:41;1.42;;;1.40;;
68523;SDS011;55524;51.380;13.372;2024-03-23T10:16:08;1.00;;;0.90;;
68523;SDS011;55524;51.380;13.372;2024-03-23T10:18:38;2.08;;;0.68;;
68523;SDS011;55524;51.380;13.372;2024-03-23T10:23:38;1.35;;;1.15;;
68523;SDS011;55524;51.380;13.372;2024-03-23T10:26:22;1.35;;;1.00;;
68523;SDS011;55524;51.380;13.372;2024-03-23T10:31:43;1.67;;;0.80;;
68523;SDS011;55524;51.380;13.372;2024-03-23T10:34:12;1.40;;;1.00;;
68523;SDS011;55524;51.380;13.372;2024-03-23T10:36:39;2.25;;;0.70;;
68523;SDS011;55524;51.380;13.372;2024-03-23T10:39:07;21.42;;;9.98;;
68523;SDS011;55524;51.380;13.372;2024-03-23T10:41:33;1.38;;;0.90;;
68523;SDS011;55524;51.380;13.372;2024-03-23T10:44:00;1.15;;;0.93;;
68523;SDS011;55524;51.380;13.372;2024-03-23T10:46:27;1.25;;;0.70;;
68523;SDS011;55524;51.380;13.372;2024-03-23T10:48:53;6.78;;;2.97;;
68523;SDS011;55524;51.380;13.372;2024-03-23T10:51:20;0.88;;;0.88;;
68523;SDS011;55524;51.380;13.372;2024-03-23T10:53:46;2.65;;;1.35;;
68523;SDS011;55524;51.380;13.372;2024-03-23T10:56:13;1.17;;;0.77;;
68523;SDS011;55524;51.380;13.372;2024-03-23T10:58:42;0.60;;;0.55;;
68523;SDS011;55524;51.380;13.372;2024-03-23T11:01:11;0.52;;;0.52;;
68523;SDS011;55524;51.380;13.372;2024-03-23T11:03:39;0.43;;;0.43;;
68523;SDS011;55524;51.380;13.372;2024-03-23T11:08:58;1.15;;;1.15;;
68523;SDS011;55524;51.380;13.372;2024-03-23T11:11:25;1.05;;;1.05;;
68523;SDS011;55524;51.380;13.372;2024-03-23T11:13:52;1.40;;;1.30;;
68523;SDS011;55524;51.380;13.372;2024-03-23T11:18:49;1.17;;;1.10;;
68523;SDS011;55524;51.380;13.372;2024-03-23T11:24:17;0.77;;;0.70;;
68523;SDS011;55524;51.380;13.372;2024-03-23T11:26:45;0.73;;;0.70;;
68523;SDS011;55524;51.380;13.372;2024-03-23T11:29:12;1.65;;;0.70;;
68523;SDS011;55524;51.380;13.372;2024-03-23T11:35:02;0.65;;;0.65;;
68523;SDS011;55524;51.380;13.372;2024-03-23T11:37:28;1.92;;;0.55;;
68523;SDS011;55524;51.380;13.372;2024-03-23T11:40:50;0.50;;;0.50;;
68523;SDS011;55524;51.380;13.372;2024-03-23T11:43:17;0.50;;;0.50;;
68523;SDS011;55524;51.380;13.372;2024-03-23T11:45:52;1.05;;;0.73;;
68523;SDS011;55524;51.380;13.372;2024-03-23T11:55:05;1.67;;;0.60;;
68523;SDS011;55524;51.380;13.372;2024-03-23T12:01:09;0.80;;;0.73;;
68523;SDS011;55524;51.380;13.372;2024-03-23T12:03:36;0.80;;;0.70;;
68523;SDS011;55524;51.380;13.372;2024-03-23T12:06:03;0.50;;;0.50;;
68523;SDS011;55524;51.380;13.372;2024-03-23T12:08:31;3.80;;;1.63;;
68523;SDS011;55524;51.380;13.372;2024-03-23T12:13:32;1.05;;;1.02;;
68523;SDS011;55524;51.380;13.372;2024-03-23T12:18:37;2.95;;;2.65;;
68523;SDS011;55524;51.380;13.372;2024-03-23T12:21:06;1.02;;;0.90;;
68523;SDS011;55524;51.380;13.372;2024-03-23T12:23:33;2.70;;;2.28;;
68523;SDS011;55524;51.380;13.372;2024-03-23T12:25:59;6.70;;;4.20;;
68523;SDS011;55524;51.380;13.372;2024-03-23T12:28:26;7.53;;;3.78;;
68523;SDS011;55524;51.380;13.372;2024-03-23T12:30:53;6.53;;;3.83;;
68523;SDS011;55524;51.380;13.372;2024-03-23T12:33:22;3.40;;;1.13;;
68523;SDS011;55524;51.380;13.372;2024-03-23T12:35:52;5.28;;;3.33;;
68523;SDS011;55524;51.380;13.372;2024-03-23T12:38:19;3.42;;;1.50;;
68523;SDS011;55524;51.380;13.372;2024-03-23T12:40:48;3.17;;;2.38;;
68523;SDS011;55524;51.380;13.372;2024-03-23T12:43:15;6.53;;;2.03;;
68523;SDS011;55524;51.380;13.372;2024-03-23T12:45:48;2.28;;;1.80;;
68523;SDS011;55524;51.380;13.372;2024-03-23T12:48:15;5.30;;;1.80;;
68523;SDS011;55524;51.380;13.372;2024-03-23T12:50:42;2.25;;;1.45;;
68523;SDS011;55524;51.380;13.372;2024-03-23T12:53:10;5.68;;;2.08;;
68523;SDS011;55524;51.380;13.372;2024-03-23T12:55:36;5.20;;;1.90;;
68523;SDS011;55524;51.380;13.372;2024-03-23T12:58:05;3.58;;;1.30;;
68523;SDS011;55524;51.380;13.372;2024-03-23T13:00:32;3.38;;;2.00;;
68523;SDS011;55524;51.380;13.372;2024-03-23T13:02:58;1.40;;;1.30;;
68523;SDS011;55524;51.380;13.372;2024-03-23T13:05:25;8.13;;;2.38;;
68523;SDS011;55524;51.380;13.372;2024-03-23T13:07:51;3.10;;;1.50;;
68523;SDS011;55524;51.380;13.372;2024-03-23T13:10:17;7.05;;;2.03;;
68523;SDS011;55524;51.380;13.372;2024-03-23T13:12:43;10.95;;;1.63;;
68523;SDS011;55524;51.380;13.372;2024-03-23T13:15:09;3.33;;;1.60;;
68523;SDS011;55524;51.380;13.372;2024-03-23T13:17:36;4.07;;;1.50;;
68523;SDS011;55524;51.380;13.372;2024-03-23T13:20:02;4.07;;;1.27;;
68523;SDS011;55524;51.380;13.372;2024-03-23T13:22:29;5.97;;;2.05;;
68523;SDS011;55524;51.380;13.372;2024-03-23T13:24:55;1.80;;;1.50;;
68523;SDS011;55524;51.380;13.372;2024-03-23T13:27:21;7.20;;;1.38;;
68523;SDS011;55524;51.380;13.372;2024-03-23T13:29:47;5.82;;;2.15;;
68523;SDS011;55524;51.380;13.372;2024-03-23T13:32:15;7.35;;;1.80;;
68523;SDS011;55524;51.380;13.372;2024-03-23T13:34:47;2.90;;;1.23;;
68523;SDS011;55524;51.380;13.372;2024-03-23T13:37:15;11.98;;;2.10;;
68523;SDS011;55524;51.380;13.372;2024-03-23T13:39:41;3.53;;;1.25;;
68523;SDS011;55524;51.380;13.372;2024-03-23T13:42:08;6.78;;;1.80;;
68523;SDS011;55524;51.380;13.372;2024-03-23T13:44:34;9.07;;;2.47;;
68523;SDS011;55524;51.380;13.372;2024-03-23T13:47:01;5.68;;;1.63;;
68523;SDS011;55524;51.380;13.372;2024-03-23T13:49:29;6.70;;;1.70;;
68523;SDS011;55524;51.380;13.372;2024-03-23T13:51:57;3.10;;;1.50;;
68523;SDS011;55524;51.380;13.372;2024-03-23T13:54:25;4.45;;;1.35;;
68523;SDS011;55524;51.380;13.372;2024-03-23T13:56:51;6.70;;;1.55;;
68523;SDS011;55524;51.380;13.372;2024-03-23T13:59:22;7.13;;;1.63;;
68523;SDS011;55524;51.380;13.372;2024-03-23T14:01:49;4.85;;;1.42;;
68523;SDS011;55524;51.380;13.372;2024-03-23T14:04:16;4.25;;;1.55;;
68523;SDS011;55524;51.380;13.372;2024-03-23T14:06:44;6.65;;;1.95;;
68523;SDS011;55524;51.380;13.372;2024-03-23T14:09:11;6.20;;;2.20;;
68523;SDS011;55524;51.380;13.372;2024-03-23T14:11:39;4.47;;;2.08;;
68523;SDS011;55524;51.380;13.372;2024-03-23T14:14:07;3.88;;;1.80;;
68523;SDS011;55524;51.380;13.372;2024-03-23T14:16:33;11.02;;;2.10;;
68523;SDS011;55524;51.380;13.372;2024-03-23T14:19:00;8.77;;;2.30;;
68523;SDS011;55524;51.380;13.372;2024-03-23T14:21:26;8.63;;;1.98;;
68523;SDS011;55524;51.380;13.372;2024-03-23T14:23:52;7.78;;;1.50;;
68523;SDS011;55524;51.380;13.372;2024-03-23T14:26:20;14.57;;;1.70;;
68523;SDS011;55524;51.380;13.372;2024-03-23T14:28:46;6.22;;;1.65;;
68523;SDS011;55524;51.380;13.372;2024-03-23T14:31:12;8.18;;;1.80;;
68523;SDS011;55524;51.380;13.372;2024-03-23T14:33:39;5.70;;;1.52;;
68523;SDS011;55524;51.380;13.372;2024-03-23T14:36:16;11.25;;;1.70;;
68523;SDS011;55524;51.380;13.372;2024-03-23T14:38:52;6.10;;;1.67;;
68523;SDS011;55524;51.380;13.372;2024-03-23T14:41:18;5.75;;;1.55;;
68523;SDS011;55524;51.380;13.372;2024-03-23T14:43:44;8.35;;;1.85;;
68523;SDS011;55524;51.380;13.372;2024-03-23T14:46:13;5.43;;;1.77;;
68523;SDS011;55524;51.380;13.372;2024-03-23T14:48:44;9.07;;;2.08;;
68523;SDS011;55524;51.380;13.372;2024-03-23T14:51:11;7.50;;;2.10;;
68523;SDS011;55524;51.380;13.372;2024-03-23T14:53:41;4.72;;;1.90;;
68523;SDS011;55524;51.380;13.372;2024-03-23T14:56:10;4.68;;;1.52;;
68523;SDS011;55524;51.380;13.372;2024-03-23T14:58:40;2.95;;;1.67;;
68523;SDS011;55524;51.380;13.372;2024-03-23T15:01:07;4.20;;;1.42;;
68523;SDS011;55524;51.380;13.372;2024-03-23T15:03:34;12.45;;;1.77;;
68523;SDS011;55524;51.380;13.372;2024-03-23T15:06:04;7.40;;;1.65;;
68523;SDS011;55524;51.380;13.372;2024-03-23T15:08:30;4.90;;;1.80;;
68523;SDS011;55524;51.380;13.372;2024-03-23T15:11:00;2.75;;;1.50;;
68523;SDS011;55524;51.380;13.372;2024-03-23T15:13:36;7.72;;;2.15;;
68523;SDS011;55524;51.380;13.372;2024-03-23T15:16:04;11.25;;;2.10;;
68523;SDS011;55524;51.380;13.372;2024-03-23T15:18:38;6.97;;;1.63;;
68523;SDS011;55524;51.380;13.372;2024-03-23T15:21:07;7.40;;;2.20;;
68523;SDS011;55524;51.380;13.372;2024-03-23T15:23:35;2.47;;;1.88;;
68523;SDS011;55524;51.380;13.372;2024-03-23T15:26:06;6.05;;;2.08;;
68523;SDS011;55524;51.380;13.372;2024-03-23T15:28:34;9.27;;;2.63;;
68523;SDS011;55524;51.380;13.372;2024-03-23T15:31:19;5.75;;;2.53;;
68523;SDS011;55524;51.380;13.372;2024-03-23T15:33:46;4.75;;;3.20;;
68523;SDS011;55524;51.380;13.372;2024-03-23T15:36:12;6.28;;;2.75;;
68523;SDS011;55524;51.380;13.372;2024-03-23T15:38:38;5.78;;;2.15;;
68523;SDS011;55524;51.380;13.372;2024-03-23T15:41:05;3.47;;;1.98;;
68523;SDS011;55524;51.380;13.372;2024-03-23T15:43:31;3.10;;;2.03;;
68523;SDS011;55524;51.380;13.372;2024-03-23T15:45:58;25.02;;;3.25;;
68523;SDS011;55524;51.380;13.372;2024-03-23T15:48:28;8.07;;;2.45;;
68523;SDS011;55524;51.380;13.372;2024-03-23T15:51:01;27.58;;;2.75;;
68523;SDS011;55524;51.380;13.372;2024-03-23T15:53:31;6.45;;;2.45;;
68523;SDS011;55524;51.380;13.372;2024-03-23T15:58:25;2.75;;;1.90;;
68523;SDS011;55524;51.380;13.372;2024-03-23T16:00:59;3.97;;;1.92;;
68523;SDS011;55524;51.380;13.372;2024-03-23T16:03:30;5.00;;;1.75;;
68523;SDS011;55524;51.380;13.372;2024-03-23T16:06:02;2.50;;;1.90;;